createdAt,value
2017-05-02T00:00:01.672Z,24.86
2017-05-02T00:01:04.049Z,24.85
2017-05-02T00:02:06.422Z,24.85
2017-05-02T00:03:09.386Z,24.81
2017-05-02T00:04:11.764Z,24.80
2017-05-02T00:05:14.130Z,24.68
2017-05-02T00:06:16.499Z,24.65
2017-05-02T00:07:18.864Z,24.58
2017-05-02T00:08:21.841Z,24.57
2017-05-02T00:09:24.210Z,24.51
2017-05-02T00:10:26.791Z,24.58
2017-05-02T00:11:29.161Z,24.42
2017-05-02T00:12:31.529Z,24.43
2017-05-02T00:13:34.502Z,24.43
2017-05-02T00:14:36.867Z,24.43
2017-05-02T00:15:39.239Z,24.45
2017-05-02T00:16:41.611Z,24.42
2017-05-02T00:17:43.979Z,24.35
2017-05-02T00:18:46.909Z,24.33
2017-05-02T00:19:49.278Z,24.35
2017-05-02T00:20:51.660Z,24.28
2017-05-02T00:21:54.022Z,24.43
2017-05-02T00:22:56.397Z,24.40
2017-05-02T00:23:59.362Z,24.42
2017-05-02T00:25:01.721Z,24.40
2017-05-02T00:26:04.092Z,24.42
2017-05-02T00:27:06.456Z,24.43
2017-05-02T00:28:08.828Z,24.40
2017-05-02T00:29:11.800Z,24.36
2017-05-02T00:30:14.165Z,24.36
2017-05-02T00:31:16.524Z,24.35
2017-05-02T00:32:18.890Z,24.32
2017-05-02T00:33:21.262Z,24.36
2017-05-02T00:34:24.232Z,24.35
2017-05-02T00:35:26.598Z,24.35
2017-05-02T00:36:28.961Z,24.35
2017-05-02T00:37:31.343Z,24.38
2017-05-02T00:38:33.705Z,24.30
2017-05-02T00:39:36.684Z,24.30
2017-05-02T00:40:39.052Z,24.21
2017-05-02T00:41:41.422Z,24.24
2017-05-02T00:42:43.787Z,24.21
2017-05-02T00:43:46.158Z,24.26
2017-05-02T00:44:49.226Z,24.21
2017-05-02T00:45:51.602Z,24.30
2017-05-02T00:46:53.966Z,24.26
2017-05-02T00:47:56.327Z,24.35
2017-05-02T00:48:58.695Z,24.23
2017-05-02T00:50:01.864Z,24.24
2017-05-02T00:51:04.235Z,24.21
2017-05-02T00:52:49.815Z,24.23
2017-05-02T00:53:52.179Z,24.17
2017-05-02T00:54:54.557Z,24.32
2017-05-02T00:55:57.518Z,24.21
2017-05-02T00:56:59.888Z,24.28
2017-05-02T00:58:02.256Z,24.26
2017-05-02T00:59:04.629Z,24.23
2017-05-02T01:00:07.002Z,24.17
2017-05-02T01:01:09.981Z,24.20
2017-05-02T01:02:12.352Z,24.20
2017-05-02T01:03:14.717Z,24.18
2017-05-02T01:04:17.097Z,24.21
2017-05-02T01:05:19.480Z,24.16
2017-05-02T01:06:22.451Z,24.13
2017-05-02T01:07:24.842Z,24.20
2017-05-02T01:08:27.215Z,24.14
2017-05-02T01:09:29.584Z,24.16
2017-05-02T01:10:31.968Z,24.17
2017-05-02T01:11:34.949Z,24.14
2017-05-02T01:12:37.326Z,24.16
2017-05-02T01:13:39.699Z,24.13
2017-05-02T01:14:42.089Z,24.16
2017-05-02T01:15:44.467Z,24.14
2017-05-02T01:16:47.445Z,24.18
2017-05-02T01:17:49.830Z,24.14
2017-05-02T01:18:52.220Z,24.13
2017-05-02T01:19:54.596Z,24.10
2017-05-02T01:20:56.982Z,24.06
2017-05-02T01:21:59.965Z,24.14
2017-05-02T01:23:02.346Z,24.16
2017-05-02T01:24:04.726Z,24.13
2017-05-02T01:25:07.308Z,24.18
2017-05-02T01:26:09.695Z,24.14
2017-05-02T01:27:12.679Z,24.16
2017-05-02T01:28:15.057Z,24.06
2017-05-02T01:29:17.431Z,24.08
2017-05-02T01:30:19.818Z,24.08
2017-05-02T01:31:22.188Z,24.08
2017-05-02T01:32:25.174Z,23.95
2017-05-02T01:33:27.553Z,24.05
2017-05-02T01:34:29.931Z,23.98
2017-05-02T01:35:32.317Z,24.02
2017-05-02T01:36:34.708Z,23.96
2017-05-02T01:37:37.682Z,23.96
2017-05-02T01:38:40.056Z,23.95
2017-05-02T01:39:42.426Z,23.95
2017-05-02T01:40:44.806Z,23.95
2017-05-02T01:41:47.191Z,23.96
2017-05-02T01:42:50.176Z,23.99
2017-05-02T01:43:52.558Z,23.92
2017-05-02T01:44:54.931Z,23.92
2017-05-02T01:45:57.314Z,23.92
2017-05-02T01:46:59.698Z,23.93
2017-05-02T01:48:02.670Z,23.91
2017-05-02T01:49:05.268Z,23.96
2017-05-02T01:50:07.641Z,23.92
2017-05-02T01:51:10.020Z,23.91
2017-05-02T01:52:12.401Z,23.92
2017-05-02T01:53:15.400Z,23.93
2017-05-02T01:54:17.974Z,23.93
2017-05-02T01:55:20.352Z,23.98
2017-05-02T01:56:22.740Z,23.99
2017-05-02T01:57:25.113Z,23.92
2017-05-02T01:58:28.088Z,23.95
2017-05-02T01:59:30.466Z,23.91
2017-05-02T02:00:32.845Z,23.95
2017-05-02T02:01:35.229Z,23.91
2017-05-02T02:02:37.612Z,23.92
2017-05-02T02:03:40.593Z,23.87
2017-05-02T02:04:43.178Z,23.83
2017-05-02T02:05:45.755Z,23.87
2017-05-02T02:06:48.140Z,23.83
2017-05-02T02:07:50.527Z,23.92
2017-05-02T02:08:53.501Z,23.88
2017-05-02T02:09:55.875Z,23.84
2017-05-02T02:10:58.269Z,23.83
2017-05-02T02:12:00.641Z,23.84
2017-05-02T02:13:03.027Z,23.78
2017-05-02T02:14:06.004Z,23.77
2017-05-02T02:15:08.392Z,23.84
2017-05-02T02:16:10.767Z,23.84
2017-05-02T02:17:13.155Z,23.86
2017-05-02T02:18:15.550Z,23.88
2017-05-02T02:19:18.523Z,23.86
2017-05-02T02:20:20.902Z,23.81
2017-05-02T02:21:23.496Z,23.87
2017-05-02T02:22:25.876Z,23.87
2017-05-02T02:23:28.450Z,23.91
2017-05-02T02:24:31.436Z,23.84
2017-05-02T02:25:33.809Z,23.86
2017-05-02T02:26:36.192Z,23.86
2017-05-02T02:27:38.566Z,23.88
2017-05-02T02:28:40.938Z,23.86
2017-05-02T02:29:43.918Z,23.78
2017-05-02T02:30:46.296Z,23.78
2017-05-02T02:31:48.676Z,23.83
2017-05-02T02:32:51.056Z,23.80
2017-05-02T02:33:53.434Z,23.80
2017-05-02T02:34:56.419Z,23.73
2017-05-02T02:35:58.798Z,23.71
2017-05-02T02:37:01.180Z,23.71
2017-05-02T02:38:03.555Z,23.68
2017-05-02T02:39:05.937Z,23.73
2017-05-02T02:40:08.912Z,23.71
2017-05-02T02:41:11.291Z,23.71
2017-05-02T02:42:13.674Z,23.69
2017-05-02T02:43:16.052Z,23.73
2017-05-02T02:44:18.443Z,23.66
2017-05-02T02:45:21.421Z,23.69
2017-05-02T02:46:23.812Z,23.66
2017-05-02T02:47:26.192Z,23.68
2017-05-02T02:48:28.570Z,23.68
2017-05-02T02:49:30.955Z,23.63
2017-05-02T02:50:35.534Z,23.62
2017-05-02T02:51:37.912Z,23.59
2017-05-02T02:52:40.291Z,23.71
2017-05-02T02:53:42.665Z,23.69
2017-05-02T02:54:45.048Z,23.71
2017-05-02T02:55:48.027Z,23.66
2017-05-02T02:56:50.411Z,23.69
2017-05-02T02:57:52.786Z,23.65
2017-05-02T02:58:55.167Z,23.69
2017-05-02T02:59:57.546Z,23.71
2017-05-02T03:01:00.519Z,23.74
2017-05-02T03:02:03.109Z,23.71
2017-05-02T03:03:05.469Z,23.76
2017-05-02T03:04:07.839Z,23.71
2017-05-02T03:05:10.399Z,23.77
2017-05-02T03:06:13.578Z,23.83
2017-05-02T03:07:15.944Z,23.74
2017-05-02T03:08:18.306Z,23.84
2017-05-02T03:09:20.672Z,23.77
2017-05-02T03:10:23.036Z,23.84
2017-05-02T03:11:26.004Z,23.81
2017-05-02T03:12:28.368Z,23.73
2017-05-02T03:13:30.738Z,23.71
2017-05-02T03:14:33.103Z,23.61
2017-05-02T03:15:35.474Z,23.55
2017-05-02T03:16:38.441Z,23.55
2017-05-02T03:17:40.806Z,23.59
2017-05-02T03:18:43.184Z,23.59
2017-05-02T03:19:45.553Z,23.55
2017-05-02T03:20:47.919Z,23.54
2017-05-02T03:21:50.891Z,23.50
2017-05-02T03:22:53.256Z,23.37
2017-05-02T03:23:55.632Z,23.36
2017-05-02T03:24:57.994Z,23.37
2017-05-02T03:26:00.367Z,23.32
2017-05-02T03:27:03.332Z,23.34
2017-05-02T03:28:05.696Z,23.37
2017-05-02T03:29:08.069Z,23.24
2017-05-02T03:30:10.447Z,23.27
2017-05-02T03:31:12.807Z,23.27
2017-05-02T03:32:15.782Z,23.24
2017-05-02T03:33:18.152Z,23.21
2017-05-02T03:34:20.509Z,23.24
2017-05-02T03:35:22.885Z,23.21
2017-05-02T03:36:25.246Z,23.25
2017-05-02T03:37:28.216Z,23.31
2017-05-02T03:38:30.585Z,23.18
2017-05-02T03:39:32.957Z,23.28
2017-05-02T03:40:35.318Z,23.27
2017-05-02T03:41:37.722Z,23.23
2017-05-02T03:42:40.644Z,23.32
2017-05-02T03:43:43.011Z,23.32
2017-05-02T03:44:45.375Z,23.31
2017-05-02T03:46:53.125Z,23.36
2017-05-02T03:47:55.494Z,23.28
2017-05-02T03:48:57.864Z,23.31
2017-05-02T03:50:00.228Z,23.36
2017-05-02T03:51:02.625Z,23.34
2017-05-02T03:52:06.320Z,23.37
2017-05-02T03:53:08.684Z,23.25
2017-05-02T03:54:11.048Z,23.28
2017-05-02T03:55:13.429Z,23.31
2017-05-02T03:56:15.794Z,23.25
2017-05-02T03:57:18.764Z,23.27
2017-05-02T03:58:21.125Z,23.23
2017-05-02T03:59:23.490Z,23.24
2017-05-02T04:00:25.865Z,23.17
2017-05-02T04:01:28.236Z,23.27
2017-05-02T04:02:31.667Z,23.17
2017-05-02T04:03:34.027Z,23.23
2017-05-02T04:04:36.392Z,23.25
2017-05-02T04:05:38.759Z,23.24
2017-05-02T04:06:41.136Z,23.25
2017-05-02T04:07:44.049Z,23.32
2017-05-02T04:08:46.417Z,23.27
2017-05-02T04:09:48.783Z,23.31
2017-05-02T04:10:51.148Z,23.23
2017-05-02T04:11:53.508Z,23.28
2017-05-02T04:12:56.429Z,23.28
2017-05-02T04:13:58.800Z,23.34
2017-05-02T04:15:01.179Z,23.40
2017-05-02T04:16:03.542Z,23.41
2017-05-02T04:17:05.904Z,23.40
2017-05-02T04:18:08.883Z,23.44
2017-05-02T04:19:11.251Z,23.48
2017-05-02T04:20:13.617Z,23.43
2017-05-02T04:21:15.977Z,23.47
2017-05-02T04:22:18.348Z,23.46
2017-05-02T04:23:21.315Z,23.48
2017-05-02T04:24:23.677Z,23.51
2017-05-02T04:25:26.046Z,23.41
2017-05-02T04:26:28.411Z,23.55
2017-05-02T04:27:30.785Z,23.46
2017-05-02T04:28:33.750Z,23.50
2017-05-02T04:29:36.124Z,23.51
2017-05-02T04:30:38.488Z,23.44
2017-05-02T04:31:40.858Z,23.46
2017-05-02T04:32:43.227Z,23.51
2017-05-02T04:33:46.144Z,23.55
2017-05-02T04:34:48.501Z,23.55
2017-05-02T04:35:50.874Z,23.50
2017-05-02T04:36:53.236Z,23.50
2017-05-02T04:37:55.620Z,23.48
2017-05-02T04:38:58.534Z,23.46
2017-05-02T04:40:00.904Z,23.51
2017-05-02T04:41:03.265Z,23.48
2017-05-02T04:42:05.633Z,23.47
2017-05-02T04:43:08.018Z,23.51
2017-05-02T04:44:10.973Z,23.46
2017-05-02T04:45:13.346Z,23.47
2017-05-02T04:46:15.723Z,23.47
2017-05-02T04:47:18.090Z,23.51
2017-05-02T04:48:20.468Z,23.47
2017-05-02T04:49:23.425Z,23.41
2017-05-02T04:50:25.789Z,23.43
2017-05-02T04:51:28.177Z,23.39
2017-05-02T04:52:30.546Z,23.40
2017-05-02T04:53:32.912Z,23.41
2017-05-02T04:54:37.832Z,23.40
2017-05-02T04:55:40.202Z,23.36
2017-05-02T04:56:42.564Z,23.36
2017-05-02T04:57:44.932Z,23.41
2017-05-02T04:58:47.288Z,23.31
2017-05-02T04:59:50.253Z,23.39
2017-05-02T05:00:52.621Z,23.40
2017-05-02T05:01:54.995Z,23.39
2017-05-02T05:02:57.362Z,23.43
2017-05-02T05:03:59.765Z,23.40
2017-05-02T05:05:02.693Z,23.36
2017-05-02T05:06:05.058Z,23.43
2017-05-02T05:07:07.421Z,23.36
2017-05-02T05:08:09.815Z,23.41
2017-05-02T05:09:12.149Z,23.39
2017-05-02T05:10:15.116Z,23.39
2017-05-02T05:11:17.480Z,23.43
2017-05-02T05:12:19.848Z,23.34
2017-05-02T05:13:22.220Z,23.41
2017-05-02T05:14:24.589Z,23.37
2017-05-02T05:15:27.555Z,23.41
2017-05-02T05:16:29.931Z,23.43
2017-05-02T05:17:32.300Z,23.37
2017-05-02T05:18:34.662Z,23.47
2017-05-02T05:19:37.024Z,23.44
2017-05-02T05:20:41.897Z,23.46
2017-05-02T05:21:44.257Z,23.44
2017-05-02T05:22:46.626Z,23.46
2017-05-02T05:23:48.998Z,23.41
2017-05-02T05:24:51.360Z,23.50
2017-05-02T05:25:54.275Z,23.46
2017-05-02T05:26:56.646Z,23.46
2017-05-02T05:27:59.004Z,23.47
2017-05-02T05:29:01.374Z,23.54
2017-05-02T05:30:03.735Z,23.56
2017-05-02T05:31:08.616Z,23.46
2017-05-02T05:32:10.978Z,23.44
2017-05-02T05:33:13.343Z,23.50
2017-05-02T05:34:15.713Z,23.46
2017-05-02T05:35:18.072Z,23.41
2017-05-02T05:36:20.991Z,23.44
2017-05-02T05:37:23.361Z,23.44
2017-05-02T05:38:25.723Z,23.51
2017-05-02T05:39:28.091Z,23.55
2017-05-02T05:40:30.462Z,23.48
2017-05-02T05:41:33.366Z,23.48
2017-05-02T05:42:35.733Z,23.44
2017-05-02T05:43:38.094Z,23.47
2017-05-02T05:44:40.461Z,23.44
2017-05-02T05:45:42.825Z,23.43
2017-05-02T05:46:45.794Z,23.46
2017-05-02T05:47:48.162Z,23.41
2017-05-02T05:48:50.527Z,23.44
2017-05-02T05:49:52.885Z,23.48
2017-05-02T05:50:55.451Z,23.44
2017-05-02T05:51:58.369Z,23.44
2017-05-02T05:53:00.735Z,23.40
2017-05-02T05:54:03.104Z,23.40
2017-05-02T05:55:05.463Z,23.41
2017-05-02T05:56:07.819Z,23.41
2017-05-02T05:57:10.742Z,23.39
2017-05-02T05:58:13.098Z,23.41
2017-05-02T05:59:15.466Z,23.39
2017-05-02T06:00:17.836Z,23.37
2017-05-02T06:01:20.209Z,23.40
2017-05-02T06:02:23.178Z,23.32
2017-05-02T06:03:25.537Z,23.37
2017-05-02T06:04:27.910Z,23.37
2017-05-02T06:05:30.269Z,23.39
2017-05-02T06:06:32.639Z,23.40
2017-05-02T06:07:35.557Z,23.40
2017-05-02T06:08:37.924Z,23.34
2017-05-02T06:09:40.292Z,23.37
2017-05-02T06:10:42.658Z,23.34
2017-05-02T06:11:45.027Z,23.39
2017-05-02T06:12:47.994Z,23.40
2017-05-02T06:13:50.360Z,23.37
2017-05-02T06:14:52.728Z,23.40
2017-05-02T06:15:55.100Z,23.39
2017-05-02T06:16:57.466Z,23.28
2017-05-02T06:18:00.380Z,23.43
2017-05-02T06:19:02.756Z,23.43
2017-05-02T06:20:05.114Z,23.39
2017-05-02T06:21:07.481Z,23.43
2017-05-02T06:22:09.844Z,23.44
2017-05-02T06:23:12.764Z,23.48
2017-05-02T06:24:15.127Z,23.47
2017-05-02T06:25:17.486Z,23.40
2017-05-02T06:26:19.849Z,23.43
2017-05-02T06:27:22.217Z,23.41
2017-05-02T06:28:25.128Z,23.50
2017-05-02T06:29:27.490Z,23.51
2017-05-02T06:30:29.856Z,23.51
2017-05-02T06:31:32.215Z,23.50
2017-05-02T06:32:34.585Z,23.48
2017-05-02T06:33:37.566Z,23.48
2017-05-02T06:34:39.910Z,23.48
2017-05-02T06:35:42.281Z,23.44
2017-05-02T06:36:44.650Z,23.47
2017-05-02T06:37:47.016Z,23.40
2017-05-02T06:38:49.989Z,23.40
2017-05-02T06:39:52.347Z,23.37
2017-05-02T06:40:54.721Z,23.36
2017-05-02T06:41:57.078Z,23.34
2017-05-02T06:42:59.449Z,23.40
2017-05-02T06:44:02.414Z,23.40
2017-05-02T06:45:04.776Z,23.34
2017-05-02T06:46:07.143Z,23.37
2017-05-02T06:47:09.502Z,23.28
2017-05-02T06:48:11.874Z,23.32
2017-05-02T06:49:14.830Z,23.25
2017-05-02T06:50:17.200Z,23.23
2017-05-02T06:51:19.565Z,23.24
2017-05-02T06:52:21.935Z,23.23
2017-05-02T06:53:24.303Z,23.21
2017-05-02T06:54:27.221Z,23.15
2017-05-02T06:55:29.582Z,23.12
2017-05-02T06:56:31.956Z,23.17
2017-05-02T06:57:34.315Z,23.10
2017-05-02T06:58:36.682Z,23.09
2017-05-02T06:59:39.654Z,23.10
2017-05-02T07:00:42.016Z,23.10
2017-05-02T07:01:44.380Z,23.06
2017-05-02T07:02:46.743Z,23.08
2017-05-02T07:03:49.113Z,23.09
2017-05-02T07:04:52.085Z,23.17
2017-05-02T07:05:54.452Z,23.23
2017-05-02T07:06:56.819Z,23.24
2017-05-02T07:07:59.185Z,23.23
2017-05-02T07:09:01.553Z,23.27
2017-05-02T07:10:04.513Z,23.20
2017-05-02T07:11:06.875Z,23.17
2017-05-02T07:12:09.238Z,23.10
2017-05-02T07:13:11.604Z,23.12
2017-05-02T07:14:13.969Z,23.13
2017-05-02T07:15:16.934Z,23.08
2017-05-02T07:16:19.305Z,23.18
2017-05-02T07:17:21.668Z,23.20
2017-05-02T07:18:24.035Z,23.25
2017-05-02T07:19:26.411Z,23.31
2017-05-02T07:20:29.374Z,23.31
2017-05-02T07:21:31.739Z,23.36
2017-05-02T07:22:34.108Z,23.36
2017-05-02T07:23:36.474Z,23.47
2017-05-02T07:24:38.839Z,23.47
2017-05-02T07:25:41.803Z,23.47
2017-05-02T07:26:44.169Z,23.43
2017-05-02T07:27:46.537Z,23.50
2017-05-02T07:28:48.895Z,23.51
2017-05-02T07:29:51.266Z,23.48
2017-05-02T07:30:54.186Z,23.50
2017-05-02T07:31:56.555Z,23.50
2017-05-02T07:32:58.931Z,23.50
2017-05-02T07:34:01.296Z,23.50
2017-05-02T07:35:03.664Z,23.44
2017-05-02T07:36:06.593Z,23.55
2017-05-02T07:37:08.956Z,23.47
2017-05-02T07:38:11.322Z,23.46
2017-05-02T07:39:13.687Z,23.51
2017-05-02T07:40:16.054Z,23.50
2017-05-02T07:41:19.023Z,23.55
2017-05-02T07:42:21.385Z,23.54
2017-05-02T07:43:23.747Z,23.46
2017-05-02T07:44:26.116Z,23.51
2017-05-02T07:45:28.480Z,23.48
2017-05-02T07:46:31.443Z,23.51
2017-05-02T07:47:33.806Z,23.50
2017-05-02T07:48:36.173Z,23.48
2017-05-02T07:49:38.540Z,23.62
2017-05-02T07:50:40.901Z,23.51
2017-05-02T07:51:43.869Z,23.54
2017-05-02T07:52:46.240Z,23.55
2017-05-02T07:53:48.603Z,23.46
2017-05-02T07:54:50.970Z,23.48
2017-05-02T07:55:53.338Z,23.48
2017-05-02T07:56:56.404Z,23.50
2017-05-02T07:57:58.770Z,23.44
2017-05-02T07:59:01.132Z,23.48
2017-05-02T08:00:03.503Z,23.56
2017-05-02T08:01:05.865Z,23.51
2017-05-02T08:02:08.832Z,23.47
2017-05-02T08:03:11.200Z,23.54
2017-05-02T08:04:13.568Z,23.55
2017-05-02T08:05:15.929Z,23.41
2017-05-02T08:06:18.300Z,23.41
2017-05-02T08:07:21.286Z,23.46
2017-05-02T08:08:23.649Z,23.50
2017-05-02T08:09:26.011Z,23.50
2017-05-02T08:10:28.379Z,23.55
2017-05-02T08:11:30.747Z,23.50
2017-05-02T08:12:33.714Z,23.59
2017-05-02T08:13:36.088Z,23.48
2017-05-02T08:14:38.449Z,23.54
2017-05-02T08:15:40.818Z,23.55
2017-05-02T08:16:43.188Z,23.50
2017-05-02T08:17:46.147Z,23.55
2017-05-02T08:18:48.516Z,23.58
2017-05-02T08:19:50.870Z,23.55
2017-05-02T08:20:53.233Z,23.51
2017-05-02T08:21:55.601Z,23.62
2017-05-02T08:22:58.571Z,23.50
2017-05-02T08:24:00.930Z,23.50
2017-05-02T08:25:03.295Z,23.61
2017-05-02T08:26:05.657Z,23.51
2017-05-02T08:27:08.026Z,23.50
2017-05-02T08:28:10.939Z,23.55
2017-05-02T08:29:13.302Z,23.55
2017-05-02T08:30:15.666Z,23.54
2017-05-02T08:31:18.029Z,23.44
2017-05-02T08:32:20.392Z,23.43
2017-05-02T08:33:23.371Z,23.43
2017-05-02T08:34:25.733Z,23.41
2017-05-02T08:35:28.108Z,23.47
2017-05-02T08:36:30.463Z,23.37
2017-05-02T08:37:32.835Z,23.37
2017-05-02T08:38:37.802Z,23.43
2017-05-02T08:39:40.153Z,23.37
2017-05-02T08:40:42.523Z,23.31
2017-05-02T08:41:44.883Z,23.32
2017-05-02T08:42:47.256Z,23.37
2017-05-02T08:43:50.221Z,23.36
2017-05-02T08:44:52.585Z,23.36
2017-05-02T08:45:54.953Z,23.36
2017-05-02T08:46:57.316Z,23.28
2017-05-02T08:47:59.688Z,23.21
2017-05-02T08:49:02.663Z,23.24
2017-05-02T08:50:05.030Z,23.18
2017-05-02T08:51:07.401Z,23.20
2017-05-02T08:52:09.775Z,23.31
2017-05-02T08:53:12.144Z,23.32
2017-05-02T08:54:15.110Z,23.20
2017-05-02T08:55:17.471Z,23.28
2017-05-02T08:56:19.854Z,23.23
2017-05-02T08:57:22.213Z,23.27
2017-05-02T08:58:24.583Z,23.23
2017-05-02T08:59:27.551Z,23.25
2017-05-02T09:00:29.917Z,23.21
2017-05-02T09:01:32.292Z,23.25
2017-05-02T09:02:34.661Z,23.28
2017-05-02T09:03:37.031Z,23.31
2017-05-02T09:04:39.943Z,23.32
2017-05-02T09:05:42.312Z,23.24
2017-05-02T09:06:44.668Z,23.31
2017-05-02T09:07:47.040Z,23.27
2017-05-02T09:08:49.399Z,23.21
2017-05-02T09:09:52.358Z,23.20
2017-05-02T09:10:54.716Z,23.32
2017-05-02T09:11:57.086Z,23.31
2017-05-02T09:12:59.457Z,23.27
2017-05-02T09:14:01.822Z,23.23
2017-05-02T09:15:04.783Z,23.28
2017-05-02T09:16:07.145Z,23.28
2017-05-02T09:17:09.505Z,23.25
2017-05-02T09:18:11.870Z,23.34
2017-05-02T09:19:14.240Z,23.27
2017-05-02T09:20:17.159Z,23.32
2017-05-02T09:21:19.528Z,23.23
2017-05-02T09:22:21.898Z,23.28
2017-05-02T09:23:24.274Z,23.24
2017-05-02T09:24:26.645Z,23.25
2017-05-02T09:25:29.605Z,23.32
2017-05-02T09:26:31.977Z,23.21
2017-05-02T09:27:34.349Z,23.25
2017-05-02T09:28:36.715Z,23.24
2017-05-02T09:29:39.079Z,23.25
2017-05-02T09:30:42.056Z,23.24
2017-05-02T09:31:44.417Z,23.24
2017-05-02T09:32:46.785Z,23.24
2017-05-02T09:33:49.149Z,23.21
2017-05-02T09:34:51.522Z,23.18
2017-05-02T09:35:54.485Z,23.20
2017-05-02T09:36:56.850Z,23.17
2017-05-02T09:37:59.214Z,23.17
2017-05-02T09:39:01.584Z,23.12
2017-05-02T09:40:03.950Z,23.17
2017-05-02T09:41:06.913Z,23.20
2017-05-02T09:42:09.278Z,23.13
2017-05-02T09:43:11.641Z,23.20
2017-05-02T09:44:14.003Z,23.18
2017-05-02T09:45:16.369Z,23.18
2017-05-02T09:46:19.281Z,23.23
2017-05-02T09:47:21.658Z,23.13
2017-05-02T09:48:24.023Z,23.15
2017-05-02T09:49:26.392Z,23.17
2017-05-02T09:50:28.768Z,23.15
2017-05-02T09:51:31.720Z,23.15
2017-05-02T09:52:34.083Z,23.17
2017-05-02T09:53:36.453Z,23.17
2017-05-02T09:54:38.819Z,23.20
2017-05-02T09:55:41.183Z,23.17
2017-05-02T09:56:44.160Z,23.17
2017-05-02T09:57:46.519Z,23.18
2017-05-02T09:58:48.884Z,23.17
2017-05-02T09:59:51.251Z,23.15
2017-05-02T10:00:53.619Z,23.06
2017-05-02T10:01:58.544Z,23.08
2017-05-02T10:03:00.909Z,23.08
2017-05-02T10:04:03.270Z,23.06
2017-05-02T10:05:05.644Z,23.13
2017-05-02T10:06:08.014Z,23.13
2017-05-02T10:07:10.990Z,23.06
2017-05-02T10:08:13.356Z,23.09
2017-05-02T10:09:15.728Z,23.06
2017-05-02T10:10:18.094Z,23.06
2017-05-02T10:11:20.457Z,23.13
2017-05-02T10:12:23.422Z,23.12
2017-05-02T10:13:25.790Z,23.06
2017-05-02T10:14:28.157Z,23.13
2017-05-02T10:15:30.520Z,23.03
2017-05-02T10:16:32.899Z,23.06
2017-05-02T10:17:35.821Z,23.09
2017-05-02T10:18:38.189Z,23.06
2017-05-02T10:19:40.547Z,23.09
2017-05-02T10:20:42.904Z,23.06
2017-05-02T10:21:45.276Z,23.06
2017-05-02T10:22:48.240Z,23.08
2017-05-02T10:23:50.598Z,23.08
2017-05-02T10:24:52.972Z,23.18
2017-05-02T10:25:55.341Z,23.10
2017-05-02T10:26:57.706Z,23.05
2017-05-02T10:28:00.638Z,23.10
2017-05-02T10:29:02.996Z,23.10
2017-05-02T10:30:05.380Z,23.08
2017-05-02T10:31:07.738Z,23.03
2017-05-02T10:32:10.113Z,23.10
2017-05-02T10:33:13.073Z,23.12
2017-05-02T10:34:15.443Z,23.10
2017-05-02T10:35:17.811Z,23.03
2017-05-02T10:36:20.166Z,23.03
2017-05-02T10:37:22.544Z,23.03
2017-05-02T10:38:25.712Z,23.08
2017-05-02T10:39:28.082Z,23.06
2017-05-02T10:40:30.453Z,23.06
2017-05-02T10:41:32.818Z,23.03
2017-05-02T10:42:35.187Z,23.05
2017-05-02T10:43:38.150Z,22.93
2017-05-02T10:44:40.519Z,22.96
2017-05-02T10:45:42.881Z,22.99
2017-05-02T10:46:45.255Z,22.98
2017-05-02T10:47:47.617Z,23.03
2017-05-02T10:48:50.577Z,23.05
2017-05-02T10:49:52.944Z,23.08
2017-05-02T10:50:55.329Z,23.10
2017-05-02T10:51:57.676Z,23.05
2017-05-02T10:53:00.042Z,23.06
2017-05-02T10:54:02.997Z,23.09
2017-05-02T10:55:05.380Z,23.05
2017-05-02T10:56:07.740Z,23.08
2017-05-02T10:57:10.102Z,23.05
2017-05-02T10:58:12.463Z,23.09
2017-05-02T10:59:15.433Z,23.06
2017-05-02T11:00:17.795Z,23.06
2017-05-02T11:01:20.161Z,23.09
2017-05-02T11:02:22.525Z,23.09
2017-05-02T11:03:24.893Z,23.10
2017-05-02T11:04:27.860Z,23.00
2017-05-02T11:05:30.219Z,23.08
2017-05-02T11:06:32.592Z,23.09
2017-05-02T11:07:34.956Z,23.03
2017-05-02T11:08:37.321Z,23.09
2017-05-02T11:09:40.278Z,23.12
2017-05-02T11:10:42.637Z,23.12
2017-05-02T11:11:45.009Z,23.10
2017-05-02T11:12:47.369Z,23.09
2017-05-02T11:13:49.740Z,23.10
2017-05-02T11:14:52.704Z,23.05
2017-05-02T11:15:55.067Z,23.05
2017-05-02T11:16:57.441Z,23.08
2017-05-02T11:17:59.806Z,23.05
2017-05-02T11:19:02.170Z,23.03
2017-05-02T11:20:05.137Z,23.05
2017-05-02T11:21:07.501Z,23.12
2017-05-02T11:22:09.874Z,23.06
2017-05-02T11:23:12.246Z,23.02
2017-05-02T11:24:14.608Z,23.03
2017-05-02T11:25:17.527Z,23.05
2017-05-02T11:26:19.900Z,23.00
2017-05-02T11:27:22.270Z,23.00
2017-05-02T11:28:24.627Z,23.05
2017-05-02T11:29:26.986Z,23.05
2017-05-02T11:30:29.964Z,23.08
2017-05-02T11:31:32.322Z,23.00
2017-05-02T11:32:34.690Z,22.99
2017-05-02T11:33:37.066Z,23.09
2017-05-02T11:34:39.424Z,23.08
2017-05-02T11:35:42.389Z,23.08
2017-05-02T11:36:44.753Z,22.99
2017-05-02T11:37:47.126Z,22.99
2017-05-02T11:38:49.486Z,23.00
2017-05-02T11:39:51.849Z,22.99
2017-05-02T11:40:54.818Z,23.08
2017-05-02T11:41:57.184Z,23.03
2017-05-02T11:42:59.545Z,22.99
2017-05-02T11:44:01.914Z,23.02
2017-05-02T11:45:04.275Z,23.10
2017-05-02T11:46:07.247Z,22.94
2017-05-02T11:47:09.619Z,23.12
2017-05-02T11:48:11.977Z,22.98
2017-05-02T11:49:14.352Z,23.03
2017-05-02T11:50:16.718Z,22.96
2017-05-02T11:51:19.645Z,23.03
2017-05-02T11:52:22.016Z,23.02
2017-05-02T11:53:24.384Z,23.09
2017-05-02T11:54:26.753Z,23.09
2017-05-02T11:55:29.120Z,23.09
2017-05-02T11:56:32.088Z,23.17
2017-05-02T11:57:34.460Z,23.13
2017-05-02T11:58:36.820Z,23.08
2017-05-02T11:59:39.205Z,23.05
2017-05-02T12:00:41.570Z,23.02
2017-05-02T12:01:44.537Z,23.10
2017-05-02T12:02:46.911Z,23.13
2017-05-02T12:03:49.283Z,23.09
2017-05-02T12:04:51.647Z,23.12
2017-05-02T12:05:54.012Z,23.08
2017-05-02T12:06:56.937Z,23.10
2017-05-02T12:07:59.302Z,23.10
2017-05-02T12:09:01.675Z,23.09
2017-05-02T12:10:04.049Z,23.12
2017-05-02T12:11:06.427Z,23.12
2017-05-02T12:12:09.382Z,23.08
2017-05-02T12:13:11.715Z,23.12
2017-05-02T12:14:14.080Z,23.17
2017-05-02T12:15:16.451Z,23.12
2017-05-02T12:16:18.834Z,23.17
2017-05-02T12:17:21.738Z,23.17
2017-05-02T12:18:24.109Z,23.18
2017-05-02T12:19:26.496Z,23.18
2017-05-02T12:20:28.861Z,23.17
2017-05-02T12:21:31.228Z,23.25
2017-05-02T12:22:34.148Z,23.24
2017-05-02T12:23:36.514Z,23.28
2017-05-02T12:24:38.884Z,23.25
2017-05-02T12:25:41.252Z,23.37
2017-05-02T12:26:43.621Z,23.37
2017-05-02T12:27:46.549Z,23.39
2017-05-02T12:28:48.924Z,23.37
2017-05-02T12:29:51.286Z,23.39
2017-05-02T12:30:53.658Z,23.41
2017-05-02T12:31:56.033Z,23.39
2017-05-02T12:32:58.950Z,23.47
2017-05-02T12:34:01.317Z,23.48
2017-05-02T12:35:03.689Z,23.41
2017-05-02T12:36:06.065Z,23.43
2017-05-02T12:37:08.441Z,23.46
2017-05-02T12:38:11.367Z,23.44
2017-05-02T12:39:13.736Z,23.55
2017-05-02T12:40:16.104Z,23.47
2017-05-02T12:41:18.479Z,23.54
2017-05-02T12:42:20.860Z,23.58
2017-05-02T12:43:23.789Z,23.63
2017-05-02T12:44:26.151Z,23.66
2017-05-02T12:45:28.527Z,23.62
2017-05-02T12:46:30.895Z,23.66
2017-05-02T12:47:33.266Z,23.76
2017-05-02T12:48:36.183Z,23.78
2017-05-02T12:49:38.552Z,23.77
2017-05-02T12:50:40.924Z,23.83
2017-05-02T12:51:43.300Z,23.92
2017-05-02T12:52:45.668Z,23.95
2017-05-02T12:53:48.588Z,24.06
2017-05-02T12:55:53.337Z,24.14
2017-05-02T12:56:55.701Z,24.23
2017-05-02T12:57:58.069Z,24.29
2017-05-02T12:59:00.994Z,24.29
2017-05-02T13:00:03.360Z,24.36
2017-05-02T13:01:05.736Z,24.35
2017-05-02T13:02:08.104Z,24.48
2017-05-02T13:03:10.480Z,24.42
2017-05-02T13:04:13.411Z,24.42
2017-05-02T13:05:15.780Z,24.48
2017-05-02T13:06:18.156Z,24.50
2017-05-02T13:07:20.528Z,24.51
2017-05-02T13:08:22.894Z,24.54
2017-05-02T13:09:25.821Z,24.61
2017-05-02T13:10:28.196Z,24.55
2017-05-02T13:11:30.570Z,24.53
2017-05-02T13:12:32.941Z,24.55
2017-05-02T13:13:35.321Z,24.57
2017-05-02T13:14:38.248Z,24.65
2017-05-02T13:15:40.618Z,24.66
2017-05-02T13:16:42.994Z,24.66
2017-05-02T13:17:45.370Z,24.63
2017-05-02T13:18:47.739Z,24.68
2017-05-02T13:19:50.676Z,24.78
2017-05-02T13:20:53.053Z,24.76
2017-05-02T13:21:55.431Z,24.70
2017-05-02T13:22:57.806Z,24.55
2017-05-02T13:24:00.187Z,24.39
2017-05-02T13:25:03.120Z,24.42
2017-05-02T13:26:05.491Z,24.35
2017-05-02T13:27:07.861Z,24.33